This is the latest recevied weather packets stored in our database for station/object KY4EF. If no packets are shown the sender has not sent any weather packets the latest 10 day(s).
| Time | Temp. | Humidity | Pressure | Rain* | Wind** | Luminosity | Snow |
|---|---|---|---|---|---|---|---|
| 1777904438 | 16.11° C | 53% | 1017.3 hPa | 0 mm | - | 460 W/m² | - |
| 1777904135 | 15.56° C | 57% | 1017.4 hPa | 0 mm | - | 438 W/m² | - |
| 1777903832 | 14.44° C | 62% | 1017.3 hPa | 0 mm | - | 406 W/m² | - |
| 1777903528 | 13.89° C | 63% | 1017.2 hPa | 0 mm | - | 368 W/m² | - |
| 1777903225 | 13.89° C | 65% | 1017.2 hPa | 0 mm | - | 312 W/m² | - |
| 1777902921 | 12.78° C | 72% | 1017.4 hPa | 0 mm | - | 257 W/m² | - |
| 1777902618 | 12.22° C | 71% | 1017.2 hPa | 0 mm | - | 231 W/m² | - |
| 1777902315 | 11.67° C | 75% | 1017.3 hPa | 0 mm | - | 330 W/m² | - |
| 1777902012 | 10.56° C | 78% | 1017.2 hPa | 0 mm | - | 195 W/m² | - |
| 1777901710 | 10.56° C | 77% | 1017.2 hPa | 0 mm | - | 274 W/m² | - |
| 1777901407 | 11.11° C | 78% | 1017.4 hPa | 0 mm | - | 325 W/m² | - |
| 1777901105 | 10.56° C | 78% | 1017.5 hPa | 0 mm | - | 343 W/m² | - |
| 1777900802 | 10° C | 81% | 1017.3 hPa | 0 mm | - | 337 W/m² | - |
| 1777900499 | 10° C | 79% | 1017.4 hPa | 0 mm | - | 256 W/m² | - |
| 1777900196 | 8.89° C | 87% | 1017.1 hPa | 0 mm | - | 239 W/m² | - |
| 1777899893 | 7.78° C | 87% | 1017.3 hPa | 0 mm | - | 191 W/m² | - |
| 1777899589 | 6.67° C | 92% | 1017.2 hPa | 0 mm | - | 163 W/m² | - |
| 1777899288 | 5.56° C | 97% | 1017.1 hPa | 0 mm | - | 139 W/m² | - |
| 1777898985 | 5° C | 99% | 1017.1 hPa | 0 mm | - | 123 W/m² | - |
| 1777898682 | 3.89° C | 99% | 1017.2 hPa | 0 mm | - | 103 W/m² | - |
| 1777898379 | 3.33° C | 99% | 1017.2 hPa | 0 mm | - | 56 W/m² | - |
| 1777898077 | 3.33° C | 99% | 1017.1 hPa | 0 mm | - | 47 W/m² | - |
| 1777897772 | 2.78° C | 99% | 1016.9 hPa | 0 mm | - | 44 W/m² | - |
| 1777897468 | 2.78° C | 99% | 1017.1 hPa | 0 mm | - | 42 W/m² | - |
| 1777897165 | 2.78° C | 99% | 1016.8 hPa | 0 mm | - | 40 W/m² | - |
* Rain latest hour (hover to see other rain measurements)
** Current wind speed in m/s (hover to see current wind gust speed)